createdAt,value
2022-09-13T00:01:38.684Z,4.0602
2022-09-13T00:06:51.195Z,4.0553
2022-09-13T00:12:03.343Z,4.0553
2022-09-13T00:17:15.373Z,4.0553
2022-09-13T00:22:28.035Z,4.0553
2022-09-13T00:27:40.003Z,4.0553
2022-09-13T00:32:52.263Z,4.0553
2022-09-13T00:38:04.557Z,4.0553
2022-09-13T00:43:16.323Z,4.0553
2022-09-13T00:48:28.282Z,4.0553
2022-09-13T00:53:40.455Z,4.0504
2022-09-13T00:58:52.263Z,4.0553
2022-09-13T01:04:04.474Z,4.0504
2022-09-13T01:09:16.917Z,4.0504
2022-09-13T01:14:29.003Z,4.0504
2022-09-13T01:19:41.127Z,4.0504
2022-09-13T01:24:53.348Z,4.0504
2022-09-13T01:30:05.570Z,4.0504
2022-09-13T01:35:17.804Z,4.0504
2022-09-13T01:40:30.065Z,4.0504
2022-09-13T01:45:42.393Z,4.0504
2022-09-13T01:50:55.159Z,4.0504
2022-09-13T01:56:07.343Z,4.0504
2022-09-13T02:01:19.927Z,4.0455
2022-09-13T02:06:32.030Z,4.0455
2022-09-13T02:11:44.192Z,4.0455
2022-09-13T02:16:56.284Z,4.0455
2022-09-13T02:22:08.341Z,4.0455
2022-09-13T02:27:20.753Z,4.0455
2022-09-13T02:32:32.647Z,4.0455
2022-09-13T02:37:44.627Z,4.0455
2022-09-13T02:42:56.962Z,4.0455
2022-09-13T02:48:09.007Z,4.0455
2022-09-13T02:53:20.930Z,4.0455
2022-09-13T02:58:33.344Z,4.0406
2022-09-13T03:03:45.346Z,4.0504
2022-09-13T03:08:57.468Z,4.0406
2022-09-13T03:14:09.922Z,4.0406
2022-09-13T03:19:21.827Z,4.0406
2022-09-13T03:24:33.657Z,4.0406
2022-09-13T03:29:46.062Z,4.0406
2022-09-13T03:34:58.157Z,4.0406
2022-09-13T03:40:10.618Z,4.0406
2022-09-13T03:45:23.071Z,4.0309
2022-09-13T03:50:34.996Z,4.0455
2022-09-13T03:55:46.938Z,4.0406
2022-09-13T04:00:59.975Z,4.0406
2022-09-13T04:06:11.661Z,4.0309
2022-09-13T04:11:23.658Z,4.0309
2022-09-13T04:16:36.122Z,4.0406
2022-09-13T04:21:48.048Z,4.0309
2022-09-13T04:27:00.249Z,4.0309
2022-09-13T04:32:12.331Z,4.0309
2022-09-13T04:37:24.248Z,4.0309
2022-09-13T04:42:36.239Z,4.0309
2022-09-13T04:47:48.453Z,4.0309
2022-09-13T04:53:00.358Z,4.0309
2022-09-13T04:58:12.557Z,4.0309
2022-09-13T05:03:24.870Z,4.0309
2022-09-13T05:08:36.756Z,4.0309
2022-09-13T05:13:48.778Z,4.0309
2022-09-13T05:19:01.191Z,4.026
2022-09-13T05:24:13.145Z,4.0309
2022-09-13T05:29:25.236Z,4.026
2022-09-13T05:34:37.440Z,4.0406
2022-09-13T05:40:13.863Z,4.026
2022-09-13T05:45:21.786Z,4.026
2022-09-13T05:50:59.680Z,4.026
2022-09-13T05:56:07.527Z,4.026
2022-09-13T06:01:20.001Z,4.026
2022-09-13T06:06:32.304Z,4.026
2022-09-13T06:11:44.247Z,4.026
2022-09-13T06:16:56.497Z,4.026
2022-09-13T06:22:08.901Z,4.026
2022-09-13T06:27:21.045Z,4.026
2022-09-13T06:32:33.217Z,4.026
2022-09-13T06:37:45.620Z,4.026
2022-09-13T06:42:57.697Z,4.026
2022-09-13T06:48:09.845Z,4.026
2022-09-13T06:53:22.479Z,4.026
2022-09-13T06:58:34.558Z,4.026
2022-09-13T07:03:46.727Z,4.026
2022-09-13T07:08:59.764Z,4.026
2022-09-13T07:14:11.787Z,4.0211
2022-09-13T07:19:23.998Z,4.0211
2022-09-13T07:24:36.290Z,4.0211
2022-09-13T07:29:48.736Z,4.026
2022-09-13T07:35:01.155Z,4.0211
2022-09-13T07:40:14.118Z,4.0211
2022-09-13T07:45:26.156Z,4.026
2022-09-13T07:50:38.607Z,4.0211
2022-09-13T07:55:51.187Z,4.0211
2022-09-13T08:01:04.198Z,4.0211
2022-09-13T08:06:16.559Z,4.0309
2022-09-13T08:11:29.252Z,4.0211
2022-09-13T08:16:41.437Z,4.0211
2022-09-13T08:21:53.816Z,4.0211
2022-09-13T08:27:06.277Z,4.0211
2022-09-13T08:32:18.596Z,4.0211
2022-09-13T08:37:30.916Z,4.026
2022-09-13T08:42:43.925Z,4.0211
2022-09-13T08:47:56.167Z,4.0211
2022-09-13T08:53:08.688Z,4.0211
2022-09-13T08:58:21.400Z,4.0211
2022-09-13T09:03:33.805Z,4.0211
2022-09-13T09:08:46.066Z,4.0211
2022-09-13T09:13:58.616Z,4.0211
2022-09-13T09:19:10.786Z,4.026
2022-09-13T09:24:23.290Z,4.0211
2022-09-13T09:29:36.468Z,4.0211
2022-09-13T09:34:48.967Z,4.0211
2022-09-13T09:40:02.145Z,4.0211
2022-09-13T09:45:15.114Z,4.0211
2022-09-13T09:50:27.693Z,4.0211
2022-09-13T09:55:40.624Z,4.026
2022-09-13T10:00:53.562Z,4.0211
2022-09-13T10:06:06.334Z,4.0211
2022-09-13T10:11:19.024Z,4.026
2022-09-13T10:16:32.978Z,4.0211
2022-09-13T10:21:45.607Z,4.0211
2022-09-13T10:26:58.709Z,4.0211
2022-09-13T10:32:11.901Z,4.0211
2022-09-13T10:37:25.074Z,4.0211
2022-09-13T10:42:37.799Z,4.026
2022-09-13T10:47:51.364Z,4.0211
2022-09-13T10:53:03.984Z,4.0211
2022-09-13T10:58:16.827Z,4.0211
2022-09-13T11:03:30.482Z,4.0211
2022-09-13T11:08:43.286Z,4.0211
2022-09-13T11:13:59.193Z,4.0211
2022-09-13T11:19:12.806Z,4.0553
2022-09-13T11:24:29.628Z,4.0602
2022-09-13T11:29:45.328Z,4.065
2022-09-13T11:45:24.699Z,4.0992
2022-09-13T11:50:38.183Z,4.1041
2022-09-13T11:55:51.674Z,4.1138
2022-09-13T12:01:04.831Z,4.1285
2022-09-13T12:06:17.299Z,4.1578
2022-09-13T12:16:42.168Z,4.2017
2022-09-13T12:27:05.067Z,4.1236
2022-09-13T12:32:17.948Z,4.1138
2022-09-13T12:42:42.404Z,4.1382
2022-09-13T12:53:06.939Z,4.1285
2022-09-13T13:08:42.294Z,4.1236
2022-09-13T13:13:54.230Z,4.1578
2022-09-13T13:29:48.501Z,4.1773
2022-09-13T13:45:26.753Z,4.1626
2022-09-13T13:50:42.341Z,4.1578
2022-09-13T13:55:55.031Z,4.148
2022-09-13T14:16:42.819Z,4.1334
2022-09-13T14:32:18.067Z,4.1334
2022-09-13T14:53:02.179Z,4.1431
2022-09-13T14:58:14.842Z,4.1431
2022-09-13T15:03:27.431Z,4.1578
2022-09-13T15:19:00.606Z,4.1626
2022-09-13T15:29:23.310Z,4.1822
2022-09-13T15:34:35.878Z,4.1822
2022-09-13T15:39:50.488Z,4.1822
2022-09-13T16:00:36.049Z,4.1919
2022-09-13T16:05:48.790Z,4.1919
2022-09-13T16:11:00.981Z,4.1919
2022-09-13T16:21:23.888Z,4.1919
2022-09-13T16:26:36.621Z,4.187
2022-09-13T16:31:49.674Z,4.1822
2022-09-13T16:37:01.985Z,4.1773
2022-09-13T16:42:14.461Z,4.1773
2022-09-13T16:47:26.862Z,4.1724
2022-09-13T16:52:39.516Z,4.1675
2022-09-13T16:57:52.090Z,4.1626
2022-09-13T17:08:15.067Z,4.1578
2022-09-13T17:18:37.717Z,4.148
2022-09-13T17:23:50.757Z,4.1578
2022-09-13T17:39:30.458Z,4.1382
2022-09-13T17:44:43.950Z,4.1382
2022-09-13T17:49:56.422Z,4.1334
2022-09-13T18:00:21.111Z,4.1285
2022-09-13T18:05:33.833Z,4.1236
2022-09-13T18:11:22.520Z,4.1236
2022-09-13T18:16:30.846Z,4.1187
2022-09-13T18:21:44.191Z,4.1187
2022-09-13T18:26:56.677Z,4.1187
2022-09-13T18:37:21.461Z,4.1138
2022-09-13T18:42:35.401Z,4.109
2022-09-13T18:47:47.662Z,4.109
2022-09-13T18:53:00.966Z,4.109
2022-09-13T18:58:15.625Z,4.109
2022-09-13T19:03:33.174Z,4.1041
2022-09-13T19:08:47.917Z,4.109
2022-09-13T19:14:02.555Z,4.1041
2022-09-13T19:19:16.122Z,4.1041
2022-09-13T19:24:31.902Z,4.0992
2022-09-13T19:29:46.047Z,4.0992
2022-09-13T19:34:58.492Z,4.0992
2022-09-13T19:45:24.456Z,4.0894
2022-09-13T19:50:36.495Z,4.0894
2022-09-13T19:55:49.092Z,4.0894
2022-09-13T20:01:01.911Z,4.0846
2022-09-13T20:06:14.311Z,4.0846
2022-09-13T20:11:26.641Z,4.0846
2022-09-13T20:21:53.852Z,4.0797
2022-09-13T20:27:09.512Z,4.0797
2022-09-13T20:32:24.867Z,4.0797
2022-09-13T20:37:37.609Z,4.0797
2022-09-13T20:48:03.045Z,4.0797
2022-09-13T20:53:15.572Z,4.0748
2022-09-13T20:58:28.692Z,4.0797
2022-09-13T21:08:54.612Z,4.0748
2022-09-13T21:14:06.984Z,4.0748
2022-09-13T21:19:19.712Z,4.0748
2022-09-13T21:24:32.261Z,4.0748
2022-09-13T21:35:01.646Z,4.0748
2022-09-13T21:40:15.496Z,4.0699
2022-09-13T21:45:27.609Z,4.0699
2022-09-13T21:55:52.207Z,4.0699
2022-09-13T22:01:05.724Z,4.0699
2022-09-13T22:06:17.749Z,4.065
2022-09-13T22:11:29.840Z,4.0699
2022-09-13T22:21:54.499Z,4.065
2022-09-13T22:27:06.786Z,4.065
2022-09-13T22:32:31.115Z,4.065
2022-09-13T22:42:53.517Z,4.0602
2022-09-13T22:48:12.876Z,4.0602
2022-09-13T22:53:25.231Z,4.0602
2022-09-13T22:58:37.298Z,4.0602
2022-09-13T23:03:50.581Z,4.0602
2022-09-13T23:09:02.529Z,4.065
2022-09-13T23:14:14.604Z,4.0553
2022-09-13T23:19:26.888Z,4.065
2022-09-13T23:29:51.338Z,4.0553
2022-09-13T23:35:03.427Z,4.0553
2022-09-13T23:40:16.491Z,4.065
2022-09-13T23:45:28.574Z,4.0553
2022-09-13T23:55:52.746Z,4.0602
